sensor_id;sensor_type;location;lat;lon;timestamp;P1;durP1;ratioP1;P2;durP2;ratioP2
35304;SDS011;26433;48.034;-1.764;2024-01-16T00:07:11;11.88;;;4.70;;
35304;SDS011;26433;48.034;-1.764;2024-01-16T00:17:20;10.57;;;3.37;;
35304;SDS011;26433;48.034;-1.764;2024-01-16T00:22:24;7.90;;;4.37;;
35304;SDS011;26433;48.034;-1.764;2024-01-16T00:27:27;10.45;;;4.55;;
35304;SDS011;26433;48.034;-1.764;2024-01-16T00:32:32;12.82;;;4.97;;
35304;SDS011;26433;48.034;-1.764;2024-01-16T00:37:36;10.07;;;5.00;;
35304;SDS011;26433;48.034;-1.764;2024-01-16T00:42:41;9.27;;;4.43;;
35304;SDS011;26433;48.034;-1.764;2024-01-16T00:47:46;4.80;;;3.60;;
35304;SDS011;26433;48.034;-1.764;2024-01-16T00:52:50;8.75;;;4.07;;
35304;SDS011;26433;48.034;-1.764;2024-01-16T00:57:53;5.95;;;3.20;;
35304;SDS011;26433;48.034;-1.764;2024-01-16T01:02:58;8.77;;;3.35;;
35304;SDS011;26433;48.034;-1.764;2024-01-16T01:08:02;11.75;;;5.37;;
35304;SDS011;26433;48.034;-1.764;2024-01-16T01:13:06;7.55;;;3.55;;
35304;SDS011;26433;48.034;-1.764;2024-01-16T01:18:11;4.45;;;2.92;;
35304;SDS011;26433;48.034;-1.764;2024-01-16T01:23:15;8.15;;;3.45;;
35304;SDS011;26433;48.034;-1.764;2024-01-16T01:28:19;9.95;;;4.62;;
35304;SDS011;26433;48.034;-1.764;2024-01-16T01:33:23;14.23;;;4.53;;
35304;SDS011;26433;48.034;-1.764;2024-01-16T01:38:27;14.60;;;4.25;;
35304;SDS011;26433;48.034;-1.764;2024-01-16T01:43:31;9.00;;;4.03;;
35304;SDS011;26433;48.034;-1.764;2024-01-16T01:48:36;7.78;;;3.67;;
35304;SDS011;26433;48.034;-1.764;2024-01-16T01:53:41;8.90;;;3.80;;
35304;SDS011;26433;48.034;-1.764;2024-01-16T01:58:47;8.75;;;4.22;;
35304;SDS011;26433;48.034;-1.764;2024-01-16T02:03:54;7.47;;;3.67;;
35304;SDS011;26433;48.034;-1.764;2024-01-16T02:08:59;7.93;;;3.25;;
35304;SDS011;26433;48.034;-1.764;2024-01-16T02:14:03;7.50;;;4.30;;
35304;SDS011;26433;48.034;-1.764;2024-01-16T02:19:08;8.88;;;3.90;;
35304;SDS011;26433;48.034;-1.764;2024-01-16T02:24:13;7.22;;;2.85;;
35304;SDS011;26433;48.034;-1.764;2024-01-16T02:29:19;7.28;;;3.53;;
35304;SDS011;26433;48.034;-1.764;2024-01-16T02:34:23;4.03;;;2.92;;
35304;SDS011;26433;48.034;-1.764;2024-01-16T02:39:28;9.77;;;3.37;;
35304;SDS011;26433;48.034;-1.764;2024-01-16T02:44:31;3.65;;;3.10;;
35304;SDS011;26433;48.034;-1.764;2024-01-16T02:49:35;7.12;;;3.45;;
35304;SDS011;26433;48.034;-1.764;2024-01-16T02:54:40;7.22;;;3.90;;
35304;SDS011;26433;48.034;-1.764;2024-01-16T02:59:44;6.50;;;3.62;;
35304;SDS011;26433;48.034;-1.764;2024-01-16T03:09:53;5.90;;;3.58;;
35304;SDS011;26433;48.034;-1.764;2024-01-16T03:14:56;9.70;;;4.45;;
35304;SDS011;26433;48.034;-1.764;2024-01-16T03:20:00;9.52;;;4.28;;
35304;SDS011;26433;48.034;-1.764;2024-01-16T03:25:06;9.98;;;4.60;;
35304;SDS011;26433;48.034;-1.764;2024-01-16T03:30:11;8.07;;;3.87;;
35304;SDS011;26433;48.034;-1.764;2024-01-16T03:40:19;8.10;;;3.80;;
35304;SDS011;26433;48.034;-1.764;2024-01-16T03:45:23;10.38;;;5.12;;
35304;SDS011;26433;48.034;-1.764;2024-01-16T03:50:27;9.00;;;3.35;;
35304;SDS011;26433;48.034;-1.764;2024-01-16T03:55:32;9.85;;;4.65;;
35304;SDS011;26433;48.034;-1.764;2024-01-16T04:00:35;5.57;;;3.42;;
35304;SDS011;26433;48.034;-1.764;2024-01-16T04:05:39;10.10;;;4.53;;
35304;SDS011;26433;48.034;-1.764;2024-01-16T04:10:44;10.77;;;4.30;;
35304;SDS011;26433;48.034;-1.764;2024-01-16T04:15:47;9.02;;;3.50;;
35304;SDS011;26433;48.034;-1.764;2024-01-16T04:20:51;14.90;;;6.28;;
35304;SDS011;26433;48.034;-1.764;2024-01-16T04:25:56;7.82;;;4.72;;
35304;SDS011;26433;48.034;-1.764;2024-01-16T04:31:00;12.75;;;3.85;;
35304;SDS011;26433;48.034;-1.764;2024-01-16T04:36:04;6.72;;;4.28;;
35304;SDS011;26433;48.034;-1.764;2024-01-16T04:41:10;4.53;;;2.75;;
35304;SDS011;26433;48.034;-1.764;2024-01-16T04:46:13;13.80;;;4.75;;
35304;SDS011;26433;48.034;-1.764;2024-01-16T04:51:17;7.03;;;3.83;;
35304;SDS011;26433;48.034;-1.764;2024-01-16T04:56:22;9.48;;;4.65;;
35304;SDS011;26433;48.034;-1.764;2024-01-16T05:01:26;9.90;;;3.85;;
35304;SDS011;26433;48.034;-1.764;2024-01-16T05:06:29;8.10;;;3.28;;
35304;SDS011;26433;48.034;-1.764;2024-01-16T05:11:35;8.32;;;4.30;;
35304;SDS011;26433;48.034;-1.764;2024-01-16T05:16:38;4.90;;;3.00;;
35304;SDS011;26433;48.034;-1.764;2024-01-16T05:21:42;5.95;;;3.72;;
35304;SDS011;26433;48.034;-1.764;2024-01-16T05:26:47;8.50;;;3.33;;
35304;SDS011;26433;48.034;-1.764;2024-01-16T05:31:50;8.13;;;3.42;;
35304;SDS011;26433;48.034;-1.764;2024-01-16T05:36:54;9.73;;;4.35;;
35304;SDS011;26433;48.034;-1.764;2024-01-16T05:41:59;11.50;;;4.72;;
35304;SDS011;26433;48.034;-1.764;2024-01-16T05:47:03;8.30;;;4.10;;
35304;SDS011;26433;48.034;-1.764;2024-01-16T05:52:07;7.55;;;3.55;;
35304;SDS011;26433;48.034;-1.764;2024-01-16T05:57:13;6.35;;;3.40;;
35304;SDS011;26433;48.034;-1.764;2024-01-16T06:02:16;6.32;;;3.12;;
35304;SDS011;26433;48.034;-1.764;2024-01-16T06:07:20;9.57;;;4.10;;
35304;SDS011;26433;48.034;-1.764;2024-01-16T06:12:25;7.20;;;4.80;;
35304;SDS011;26433;48.034;-1.764;2024-01-16T06:17:28;6.60;;;3.12;;
35304;SDS011;26433;48.034;-1.764;2024-01-16T06:22:32;6.40;;;3.55;;
35304;SDS011;26433;48.034;-1.764;2024-01-16T06:27:37;11.73;;;4.00;;
35304;SDS011;26433;48.034;-1.764;2024-01-16T06:32:41;10.40;;;3.80;;
35304;SDS011;26433;48.034;-1.764;2024-01-16T06:42:49;8.00;;;3.20;;
35304;SDS011;26433;48.034;-1.764;2024-01-16T06:47:53;6.85;;;3.28;;
35304;SDS011;26433;48.034;-1.764;2024-01-16T06:52:57;8.13;;;3.62;;
35304;SDS011;26433;48.034;-1.764;2024-01-16T06:58:02;7.07;;;3.33;;
35304;SDS011;26433;48.034;-1.764;2024-01-16T07:03:05;7.87;;;3.53;;
35304;SDS011;26433;48.034;-1.764;2024-01-16T07:08:09;9.43;;;3.92;;
35304;SDS011;26433;48.034;-1.764;2024-01-16T07:13:14;8.60;;;4.55;;
35304;SDS011;26433;48.034;-1.764;2024-01-16T07:18:17;10.10;;;4.50;;
35304;SDS011;26433;48.034;-1.764;2024-01-16T07:28:26;6.63;;;3.17;;
35304;SDS011;26433;48.034;-1.764;2024-01-16T07:33:30;5.97;;;3.60;;
35304;SDS011;26433;48.034;-1.764;2024-01-16T07:38:34;13.05;;;4.20;;
35304;SDS011;26433;48.034;-1.764;2024-01-16T07:43:39;9.55;;;3.78;;
35304;SDS011;26433;48.034;-1.764;2024-01-16T07:48:43;14.45;;;3.40;;
35304;SDS011;26433;48.034;-1.764;2024-01-16T07:53:47;9.30;;;4.60;;
35304;SDS011;26433;48.034;-1.764;2024-01-16T07:58:55;14.30;;;4.37;;
35304;SDS011;26433;48.034;-1.764;2024-01-16T08:03:58;9.95;;;3.95;;
35304;SDS011;26433;48.034;-1.764;2024-01-16T08:09:02;6.65;;;3.40;;
35304;SDS011;26433;48.034;-1.764;2024-01-16T08:19:11;6.22;;;2.97;;
35304;SDS011;26433;48.034;-1.764;2024-01-16T08:24:16;10.55;;;3.58;;
35304;SDS011;26433;48.034;-1.764;2024-01-16T08:29:21;5.70;;;3.00;;
35304;SDS011;26433;48.034;-1.764;2024-01-16T08:34:25;4.32;;;3.25;;
35304;SDS011;26433;48.034;-1.764;2024-01-16T08:39:30;6.15;;;3.70;;
35304;SDS011;26433;48.034;-1.764;2024-01-16T08:44:37;6.45;;;3.50;;
35304;SDS011;26433;48.034;-1.764;2024-01-16T08:49:41;7.03;;;3.90;;
35304;SDS011;26433;48.034;-1.764;2024-01-16T08:54:45;6.43;;;3.45;;
35304;SDS011;26433;48.034;-1.764;2024-01-16T08:59:51;5.80;;;3.12;;
35304;SDS011;26433;48.034;-1.764;2024-01-16T09:04:55;5.90;;;3.60;;
35304;SDS011;26433;48.034;-1.764;2024-01-16T09:10:00;6.30;;;3.35;;
35304;SDS011;26433;48.034;-1.764;2024-01-16T09:15:07;10.85;;;5.68;;
35304;SDS011;26433;48.034;-1.764;2024-01-16T09:20:12;7.82;;;3.03;;
35304;SDS011;26433;48.034;-1.764;2024-01-16T09:25:18;11.00;;;4.20;;
35304;SDS011;26433;48.034;-1.764;2024-01-16T09:30:28;9.00;;;4.05;;
35304;SDS011;26433;48.034;-1.764;2024-01-16T09:35:34;3.92;;;3.17;;
35304;SDS011;26433;48.034;-1.764;2024-01-16T09:40:38;11.02;;;4.65;;
35304;SDS011;26433;48.034;-1.764;2024-01-16T09:45:44;9.23;;;3.62;;
35304;SDS011;26433;48.034;-1.764;2024-01-16T09:50:50;11.05;;;4.15;;
35304;SDS011;26433;48.034;-1.764;2024-01-16T09:55:55;10.05;;;4.55;;
35304;SDS011;26433;48.034;-1.764;2024-01-16T10:01:06;8.00;;;3.42;;
35304;SDS011;26433;48.034;-1.764;2024-01-16T10:06:10;10.82;;;2.78;;
35304;SDS011;26433;48.034;-1.764;2024-01-16T10:11:15;3.97;;;2.37;;
35304;SDS011;26433;48.034;-1.764;2024-01-16T10:16:21;3.17;;;2.30;;
35304;SDS011;26433;48.034;-1.764;2024-01-16T10:21:27;5.82;;;2.53;;
35304;SDS011;26433;48.034;-1.764;2024-01-16T10:26:34;5.55;;;4.45;;
35304;SDS011;26433;48.034;-1.764;2024-01-16T10:31:42;4.22;;;1.50;;
35304;SDS011;26433;48.034;-1.764;2024-01-16T10:36:47;3.87;;;2.62;;
35304;SDS011;26433;48.034;-1.764;2024-01-16T10:41:55;3.53;;;1.95;;
35304;SDS011;26433;48.034;-1.764;2024-01-16T10:47:11;7.28;;;2.10;;
35304;SDS011;26433;48.034;-1.764;2024-01-16T10:52:15;4.90;;;2.50;;
35304;SDS011;26433;48.034;-1.764;2024-01-16T10:57:24;4.62;;;2.53;;
35304;SDS011;26433;48.034;-1.764;2024-01-16T11:02:34;8.23;;;4.65;;
35304;SDS011;26433;48.034;-1.764;2024-01-16T11:07:44;2.95;;;2.00;;
35304;SDS011;26433;48.034;-1.764;2024-01-16T11:12:49;2.67;;;2.00;;
35304;SDS011;26433;48.034;-1.764;2024-01-16T11:17:56;3.67;;;1.83;;
35304;SDS011;26433;48.034;-1.764;2024-01-16T11:23:00;7.97;;;1.73;;
35304;SDS011;26433;48.034;-1.764;2024-01-16T11:28:08;2.10;;;1.42;;
35304;SDS011;26433;48.034;-1.764;2024-01-16T11:38:50;5.37;;;1.30;;
35304;SDS011;26433;48.034;-1.764;2024-01-16T11:43:59;3.00;;;1.25;;
35304;SDS011;26433;48.034;-1.764;2024-01-16T11:49:04;4.37;;;1.70;;
35304;SDS011;26433;48.034;-1.764;2024-01-16T11:54:08;1.75;;;0.88;;
35304;SDS011;26433;48.034;-1.764;2024-01-16T11:59:16;2.50;;;1.00;;
35304;SDS011;26433;48.034;-1.764;2024-01-16T12:04:37;3.15;;;1.92;;
35304;SDS011;26433;48.034;-1.764;2024-01-16T12:09:41;3.83;;;1.10;;
35304;SDS011;26433;48.034;-1.764;2024-01-16T12:14:50;1.80;;;1.63;;
35304;SDS011;26433;48.034;-1.764;2024-01-16T12:19:57;2.22;;;1.55;;
35304;SDS011;26433;48.034;-1.764;2024-01-16T12:25:01;5.82;;;1.55;;
35304;SDS011;26433;48.034;-1.764;2024-01-16T12:30:07;2.42;;;1.00;;
35304;SDS011;26433;48.034;-1.764;2024-01-16T12:35:13;1.27;;;0.68;;
35304;SDS011;26433;48.034;-1.764;2024-01-16T12:40:23;1.15;;;0.77;;
35304;SDS011;26433;48.034;-1.764;2024-01-16T12:45:27;2.50;;;0.87;;
35304;SDS011;26433;48.034;-1.764;2024-01-16T12:55:37;2.87;;;0.95;;
35304;SDS011;26433;48.034;-1.764;2024-01-16T13:00:41;1.30;;;0.80;;
35304;SDS011;26433;48.034;-1.764;2024-01-16T13:05:54;0.73;;;0.68;;
35304;SDS011;26433;48.034;-1.764;2024-01-16T13:11:02;1.60;;;1.10;;
35304;SDS011;26433;48.034;-1.764;2024-01-16T13:16:06;1.52;;;0.70;;
35304;SDS011;26433;48.034;-1.764;2024-01-16T13:21:12;0.95;;;0.70;;
35304;SDS011;26433;48.034;-1.764;2024-01-16T13:26:15;2.70;;;0.82;;
35304;SDS011;26433;48.034;-1.764;2024-01-16T13:31:19;2.67;;;0.80;;
35304;SDS011;26433;48.034;-1.764;2024-01-16T13:36:24;1.57;;;0.80;;
35304;SDS011;26433;48.034;-1.764;2024-01-16T13:41:48;2.17;;;0.85;;
35304;SDS011;26433;48.034;-1.764;2024-01-16T13:46:52;2.83;;;0.60;;
35304;SDS011;26433;48.034;-1.764;2024-01-16T13:52:11;2.05;;;0.70;;
35304;SDS011;26433;48.034;-1.764;2024-01-16T13:57:14;1.23;;;0.80;;
35304;SDS011;26433;48.034;-1.764;2024-01-16T14:02:18;3.37;;;0.90;;
35304;SDS011;26433;48.034;-1.764;2024-01-16T14:07:23;1.83;;;1.00;;
35304;SDS011;26433;48.034;-1.764;2024-01-16T14:12:27;5.95;;;0.73;;
35304;SDS011;26433;48.034;-1.764;2024-01-16T14:17:30;1.27;;;0.73;;
35304;SDS011;26433;48.034;-1.764;2024-01-16T14:22:37;3.62;;;1.40;;
35304;SDS011;26433;48.034;-1.764;2024-01-16T14:27:42;5.57;;;1.00;;
35304;SDS011;26433;48.034;-1.764;2024-01-16T14:32:46;3.80;;;1.33;;
35304;SDS011;26433;48.034;-1.764;2024-01-16T14:37:51;1.48;;;1.00;;
35304;SDS011;26433;48.034;-1.764;2024-01-16T14:42:55;1.62;;;1.00;;
35304;SDS011;26433;48.034;-1.764;2024-01-16T14:48:00;1.80;;;1.02;;
35304;SDS011;26433;48.034;-1.764;2024-01-16T14:53:07;2.45;;;1.25;;
35304;SDS011;26433;48.034;-1.764;2024-01-16T14:58:11;1.48;;;0.90;;
35304;SDS011;26433;48.034;-1.764;2024-01-16T15:03:15;4.32;;;1.10;;
35304;SDS011;26433;48.034;-1.764;2024-01-16T15:08:21;1.08;;;0.90;;
35304;SDS011;26433;48.034;-1.764;2024-01-16T15:13:25;2.00;;;0.88;;
35304;SDS011;26433;48.034;-1.764;2024-01-16T15:18:29;1.17;;;0.73;;
35304;SDS011;26433;48.034;-1.764;2024-01-16T15:23:34;2.75;;;0.80;;
35304;SDS011;26433;48.034;-1.764;2024-01-16T15:28:38;0.70;;;0.70;;
35304;SDS011;26433;48.034;-1.764;2024-01-16T15:33:46;1.58;;;0.90;;
35304;SDS011;26433;48.034;-1.764;2024-01-16T15:38:51;2.78;;;1.33;;
35304;SDS011;26433;48.034;-1.764;2024-01-16T15:43:55;1.20;;;1.02;;
35304;SDS011;26433;48.034;-1.764;2024-01-16T15:49:00;1.75;;;0.90;;
35304;SDS011;26433;48.034;-1.764;2024-01-16T15:54:05;1.98;;;1.77;;
35304;SDS011;26433;48.034;-1.764;2024-01-16T15:59:10;1.92;;;0.70;;
35304;SDS011;26433;48.034;-1.764;2024-01-16T16:04:14;3.12;;;1.83;;
35304;SDS011;26433;48.034;-1.764;2024-01-16T16:09:20;1.27;;;1.17;;
35304;SDS011;26433;48.034;-1.764;2024-01-16T16:14:25;1.48;;;1.02;;
35304;SDS011;26433;48.034;-1.764;2024-01-16T16:19:33;2.00;;;1.37;;
35304;SDS011;26433;48.034;-1.764;2024-01-16T16:24:38;2.60;;;2.20;;
35304;SDS011;26433;48.034;-1.764;2024-01-16T16:29:41;1.50;;;1.25;;
35304;SDS011;26433;48.034;-1.764;2024-01-16T16:34:46;2.33;;;1.35;;
35304;SDS011;26433;48.034;-1.764;2024-01-16T16:39:51;2.60;;;1.25;;
35304;SDS011;26433;48.034;-1.764;2024-01-16T16:44:54;3.53;;;1.98;;
35304;SDS011;26433;48.034;-1.764;2024-01-16T16:49:58;2.53;;;1.95;;
35304;SDS011;26433;48.034;-1.764;2024-01-16T16:55:04;4.65;;;2.08;;
35304;SDS011;26433;48.034;-1.764;2024-01-16T17:00:08;4.53;;;1.17;;
35304;SDS011;26433;48.034;-1.764;2024-01-16T17:05:15;4.37;;;2.30;;
35304;SDS011;26433;48.034;-1.764;2024-01-16T17:10:22;2.03;;;1.30;;
35304;SDS011;26433;48.034;-1.764;2024-01-16T17:15:26;3.60;;;1.65;;
35304;SDS011;26433;48.034;-1.764;2024-01-16T17:20:29;5.20;;;2.55;;
35304;SDS011;26433;48.034;-1.764;2024-01-16T17:25:34;1.35;;;1.23;;
35304;SDS011;26433;48.034;-1.764;2024-01-16T17:30:39;4.82;;;1.37;;
35304;SDS011;26433;48.034;-1.764;2024-01-16T17:35:42;2.40;;;1.27;;
35304;SDS011;26433;48.034;-1.764;2024-01-16T17:40:48;2.70;;;2.20;;
35304;SDS011;26433;48.034;-1.764;2024-01-16T17:45:52;2.28;;;1.65;;
35304;SDS011;26433;48.034;-1.764;2024-01-16T17:50:56;3.17;;;1.77;;
35304;SDS011;26433;48.034;-1.764;2024-01-16T17:56:01;2.75;;;1.90;;
35304;SDS011;26433;48.034;-1.764;2024-01-16T18:01:04;3.70;;;1.92;;
35304;SDS011;26433;48.034;-1.764;2024-01-16T18:06:13;2.42;;;1.75;;
35304;SDS011;26433;48.034;-1.764;2024-01-16T18:11:20;5.93;;;1.70;;
35304;SDS011;26433;48.034;-1.764;2024-01-16T18:16:25;3.87;;;2.33;;
35304;SDS011;26433;48.034;-1.764;2024-01-16T18:21:28;2.90;;;1.92;;
35304;SDS011;26433;48.034;-1.764;2024-01-16T18:26:33;5.53;;;2.42;;
35304;SDS011;26433;48.034;-1.764;2024-01-16T18:31:38;5.72;;;2.75;;
35304;SDS011;26433;48.034;-1.764;2024-01-16T18:36:45;4.32;;;2.17;;
35304;SDS011;26433;48.034;-1.764;2024-01-16T18:41:51;3.25;;;1.52;;
35304;SDS011;26433;48.034;-1.764;2024-01-16T18:46:55;5.62;;;1.85;;
35304;SDS011;26433;48.034;-1.764;2024-01-16T18:51:59;4.87;;;2.53;;
35304;SDS011;26433;48.034;-1.764;2024-01-16T18:57:08;3.95;;;2.45;;
35304;SDS011;26433;48.034;-1.764;2024-01-16T19:02:12;4.45;;;2.45;;
35304;SDS011;26433;48.034;-1.764;2024-01-16T19:07:23;3.42;;;1.60;;
35304;SDS011;26433;48.034;-1.764;2024-01-16T19:12:28;2.60;;;1.80;;
35304;SDS011;26433;48.034;-1.764;2024-01-16T19:17:31;4.82;;;2.80;;
35304;SDS011;26433;48.034;-1.764;2024-01-16T19:22:37;5.55;;;2.83;;
35304;SDS011;26433;48.034;-1.764;2024-01-16T19:27:43;3.30;;;2.15;;
35304;SDS011;26433;48.034;-1.764;2024-01-16T19:32:49;4.68;;;1.75;;
35304;SDS011;26433;48.034;-1.764;2024-01-16T19:37:53;4.55;;;1.67;;
35304;SDS011;26433;48.034;-1.764;2024-01-16T19:42:58;3.42;;;2.30;;
35304;SDS011;26433;48.034;-1.764;2024-01-16T19:48:06;6.53;;;2.67;;
35304;SDS011;26433;48.034;-1.764;2024-01-16T19:53:14;4.72;;;2.53;;
35304;SDS011;26433;48.034;-1.764;2024-01-16T19:58:19;4.60;;;2.78;;
35304;SDS011;26433;48.034;-1.764;2024-01-16T20:03:23;3.60;;;2.47;;
35304;SDS011;26433;48.034;-1.764;2024-01-16T20:08:28;3.53;;;1.77;;
35304;SDS011;26433;48.034;-1.764;2024-01-16T20:13:33;5.68;;;3.03;;
35304;SDS011;26433;48.034;-1.764;2024-01-16T20:18:37;5.32;;;2.50;;
35304;SDS011;26433;48.034;-1.764;2024-01-16T20:23:40;5.43;;;2.10;;
35304;SDS011;26433;48.034;-1.764;2024-01-16T20:28:46;3.10;;;1.83;;
35304;SDS011;26433;48.034;-1.764;2024-01-16T20:33:50;5.50;;;2.33;;
35304;SDS011;26433;48.034;-1.764;2024-01-16T20:38:54;5.32;;;2.20;;
35304;SDS011;26433;48.034;-1.764;2024-01-16T20:43:59;4.90;;;2.55;;
35304;SDS011;26433;48.034;-1.764;2024-01-16T20:49:03;3.85;;;2.10;;
35304;SDS011;26433;48.034;-1.764;2024-01-16T20:54:07;5.82;;;3.10;;
35304;SDS011;26433;48.034;-1.764;2024-01-16T20:59:12;3.45;;;2.45;;
35304;SDS011;26433;48.034;-1.764;2024-01-16T21:04:16;3.05;;;2.08;;
35304;SDS011;26433;48.034;-1.764;2024-01-16T21:09:19;5.30;;;2.67;;
35304;SDS011;26433;48.034;-1.764;2024-01-16T21:14:24;3.80;;;2.62;;
35304;SDS011;26433;48.034;-1.764;2024-01-16T21:19:28;7.80;;;2.62;;
35304;SDS011;26433;48.034;-1.764;2024-01-16T21:24:32;6.57;;;3.28;;
35304;SDS011;26433;48.034;-1.764;2024-01-16T21:29:37;4.90;;;2.67;;
35304;SDS011;26433;48.034;-1.764;2024-01-16T21:34:45;6.60;;;4.03;;
35304;SDS011;26433;48.034;-1.764;2024-01-16T21:39:49;5.65;;;2.97;;
35304;SDS011;26433;48.034;-1.764;2024-01-16T21:44:54;6.82;;;2.97;;
35304;SDS011;26433;48.034;-1.764;2024-01-16T21:49:58;6.47;;;3.40;;
35304;SDS011;26433;48.034;-1.764;2024-01-16T21:55:08;7.28;;;3.12;;
35304;SDS011;26433;48.034;-1.764;2024-01-16T22:00:13;11.60;;;3.85;;
35304;SDS011;26433;48.034;-1.764;2024-01-16T22:05:17;8.98;;;4.40;;
35304;SDS011;26433;48.034;-1.764;2024-01-16T22:10:21;6.87;;;3.22;;
35304;SDS011;26433;48.034;-1.764;2024-01-16T22:15:26;4.22;;;2.62;;
35304;SDS011;26433;48.034;-1.764;2024-01-16T22:20:30;6.57;;;2.87;;
35304;SDS011;26433;48.034;-1.764;2024-01-16T22:25:34;8.68;;;3.60;;
35304;SDS011;26433;48.034;-1.764;2024-01-16T22:30:40;5.22;;;3.53;;
35304;SDS011;26433;48.034;-1.764;2024-01-16T22:35:43;6.53;;;3.33;;
35304;SDS011;26433;48.034;-1.764;2024-01-16T22:40:47;9.52;;;4.97;;
35304;SDS011;26433;48.034;-1.764;2024-01-16T22:45:52;7.03;;;2.92;;
35304;SDS011;26433;48.034;-1.764;2024-01-16T22:50:55;5.60;;;3.00;;
35304;SDS011;26433;48.034;-1.764;2024-01-16T22:55:59;5.60;;;2.90;;
35304;SDS011;26433;48.034;-1.764;2024-01-16T23:01:05;4.75;;;2.75;;
35304;SDS011;26433;48.034;-1.764;2024-01-16T23:06:09;11.20;;;2.78;;
35304;SDS011;26433;48.034;-1.764;2024-01-16T23:11:20;4.30;;;2.50;;
35304;SDS011;26433;48.034;-1.764;2024-01-16T23:16:26;5.82;;;3.40;;
35304;SDS011;26433;48.034;-1.764;2024-01-16T23:21:30;5.57;;;3.10;;
35304;SDS011;26433;48.034;-1.764;2024-01-16T23:26:34;3.30;;;2.42;;
35304;SDS011;26433;48.034;-1.764;2024-01-16T23:31:39;4.68;;;2.62;;
35304;SDS011;26433;48.034;-1.764;2024-01-16T23:36:44;3.72;;;2.42;;
35304;SDS011;26433;48.034;-1.764;2024-01-16T23:41:47;7.72;;;3.15;;
35304;SDS011;26433;48.034;-1.764;2024-01-16T23:46:52;6.07;;;2.97;;
35304;SDS011;26433;48.034;-1.764;2024-01-16T23:51:56;9.73;;;4.40;;
35304;SDS011;26433;48.034;-1.764;2024-01-16T23:56:59;5.28;;;2.15;;
